createdAt,value
2022-10-15T00:00:40.599Z,13.52
2022-10-15T00:03:33.009Z,13.51
2022-10-15T00:06:08.493Z,13.50
2022-10-15T00:08:41.248Z,13.51
2022-10-15T00:11:14.708Z,13.53
2022-10-15T00:13:46.738Z,13.54
2022-10-15T00:16:19.930Z,13.56
2022-10-15T00:18:52.628Z,13.58
2022-10-15T00:21:24.715Z,13.61
2022-10-15T00:23:57.322Z,13.61
2022-10-15T00:26:31.317Z,13.66
2022-10-15T00:29:04.788Z,13.68
2022-10-15T00:31:36.852Z,13.71
2022-10-15T00:34:12.211Z,13.76
2022-10-15T00:36:44.056Z,13.76
2022-10-15T00:39:16.109Z,13.76
2022-10-15T00:41:48.384Z,13.78
2022-10-15T00:44:55.627Z,13.81
2022-10-15T00:47:31.633Z,13.86
2022-10-15T00:50:12.834Z,13.82
2022-10-15T00:52:56.336Z,13.88
2022-10-15T00:55:32.718Z,13.91
2022-10-15T00:58:07.712Z,13.96
2022-10-15T01:00:40.412Z,13.96
2022-10-15T01:03:13.414Z,13.96
2022-10-15T01:05:49.043Z,14.01
2022-10-15T01:08:21.010Z,14.09
2022-10-15T01:10:59.865Z,14.12
2022-10-15T01:13:39.270Z,14.19
2022-10-15T01:16:19.608Z,14.16
2022-10-15T01:18:59.665Z,14.17
2022-10-15T01:21:37.114Z,14.15
2022-10-15T01:24:39.713Z,14.17
2022-10-15T01:27:23.365Z,14.20
2022-10-15T01:30:28.221Z,14.20
2022-10-15T01:33:17.013Z,14.17
2022-10-15T01:35:53.339Z,14.19
2022-10-15T01:38:36.057Z,14.17
2022-10-15T01:41:15.246Z,14.16
2022-10-15T01:43:52.924Z,14.18
2022-10-15T01:46:53.537Z,14.15
2022-10-15T01:49:31.413Z,14.13
2022-10-15T01:52:12.545Z,14.12
2022-10-15T01:54:47.038Z,14.10
2022-10-15T01:57:22.218Z,14.08
2022-10-15T01:59:56.419Z,14.04
2022-10-15T02:02:29.050Z,14.04
2022-10-15T02:05:01.458Z,14.02
2022-10-15T02:07:42.094Z,14.00
2022-10-15T02:10:20.602Z,14.00
2022-10-15T02:13:10.113Z,13.98
2022-10-15T02:15:51.644Z,13.95
2022-10-15T02:18:30.959Z,13.94
2022-10-15T02:21:08.842Z,13.95
2022-10-15T02:23:46.536Z,13.80
2022-10-15T02:26:19.899Z,13.95
2022-10-15T02:28:56.384Z,13.95
2022-10-15T02:31:31.332Z,13.95
2022-10-15T02:34:07.495Z,13.94
2022-10-15T02:36:43.907Z,13.96
2022-10-15T02:39:20.188Z,13.96
2022-10-15T02:41:54.041Z,13.98
2022-10-15T02:44:26.225Z,13.99
2022-10-15T02:46:58.981Z,13.99
2022-10-15T02:49:30.967Z,14.00
2022-10-15T02:52:03.178Z,14.00
2022-10-15T02:54:35.275Z,13.99
2022-10-15T02:57:07.272Z,13.99
2022-10-15T02:59:39.896Z,14.01
2022-10-15T03:02:15.389Z,14.00
2022-10-15T03:04:50.783Z,14.02
2022-10-15T03:07:23.870Z,14.04
2022-10-15T03:09:56.579Z,14.03
2022-10-15T03:12:29.042Z,14.03
2022-10-15T03:15:01.677Z,14.08
2022-10-15T03:17:34.247Z,14.08
2022-10-15T03:20:07.433Z,14.09
2022-10-15T03:22:42.256Z,14.08
2022-10-15T03:25:15.463Z,14.19
2022-10-15T03:27:47.677Z,14.16
2022-10-15T03:30:28.055Z,14.22
2022-10-15T03:33:00.307Z,14.27
2022-10-15T03:35:32.562Z,14.28
2022-10-15T03:38:04.693Z,14.23
2022-10-15T03:40:37.314Z,14.23
2022-10-15T03:43:35.394Z,14.30
2022-10-15T03:46:09.722Z,14.38
2022-10-15T03:48:45.584Z,14.40
2022-10-15T03:51:22.009Z,14.41
2022-10-15T03:54:00.953Z,14.31
2022-10-15T03:56:33.086Z,14.35
2022-10-15T03:59:18.901Z,14.43
2022-10-15T04:01:54.415Z,14.52
2022-10-15T04:04:26.386Z,14.43
2022-10-15T04:06:58.394Z,14.40
2022-10-15T04:09:30.597Z,14.29
2022-10-15T04:12:23.135Z,14.35
2022-10-15T04:14:55.549Z,14.45
2022-10-15T04:17:27.456Z,14.46
2022-10-15T04:19:59.411Z,14.45
2022-10-15T04:22:31.741Z,14.47
2022-10-15T04:25:05.677Z,14.49
2022-10-15T04:27:37.781Z,14.55
2022-10-15T04:30:15.169Z,14.48
2022-10-15T04:32:52.312Z,14.59
2022-10-15T04:35:24.478Z,14.56
2022-10-15T04:38:19.383Z,14.58
2022-10-15T04:41:08.237Z,14.63
2022-10-15T04:44:06.979Z,14.64
2022-10-15T04:46:38.904Z,14.65
2022-10-15T04:49:26.519Z,14.69
2022-10-15T04:51:58.749Z,14.71
2022-10-15T04:54:36.105Z,14.71
2022-10-15T04:57:10.289Z,14.75
2022-10-15T04:59:44.472Z,14.77
2022-10-15T05:02:22.165Z,14.78
2022-10-15T05:04:59.302Z,14.80
2022-10-15T05:07:31.468Z,14.80
2022-10-15T05:10:03.516Z,14.83
2022-10-15T05:12:37.637Z,14.84
2022-10-15T05:15:15.417Z,14.86
2022-10-15T05:17:47.477Z,14.87
2022-10-15T05:20:20.076Z,14.93
2022-10-15T05:22:52.217Z,14.92
2022-10-15T05:25:26.092Z,14.89
2022-10-15T05:27:59.376Z,14.83
2022-10-15T05:30:31.322Z,14.84
2022-10-15T05:33:03.266Z,14.87
2022-10-15T05:35:35.067Z,14.89
2022-10-15T05:38:11.257Z,14.92
2022-10-15T05:40:48.392Z,14.89
2022-10-15T05:43:25.774Z,14.91
2022-10-15T05:45:58.817Z,14.82
2022-10-15T05:48:31.239Z,14.86
2022-10-15T05:51:08.288Z,14.87
2022-10-15T05:53:43.348Z,14.88
2022-10-15T05:56:17.147Z,14.79
2022-10-15T05:58:51.739Z,14.81
2022-10-15T06:01:23.854Z,14.79
2022-10-15T06:03:58.816Z,14.89
2022-10-15T06:06:31.403Z,14.94
2022-10-15T06:09:03.372Z,14.92
2022-10-15T06:11:35.243Z,14.92
2022-10-15T06:14:07.129Z,14.91
2022-10-15T06:16:39.374Z,14.91
2022-10-15T06:19:11.916Z,14.91
2022-10-15T06:21:43.758Z,14.90
2022-10-15T06:24:15.726Z,14.90
2022-10-15T06:26:47.659Z,14.83
2022-10-15T06:29:19.741Z,14.87
2022-10-15T06:31:51.673Z,14.93
2022-10-15T06:34:23.598Z,14.94
2022-10-15T06:36:55.483Z,14.94
2022-10-15T06:39:27.555Z,14.93
2022-10-15T06:41:59.528Z,14.97
2022-10-15T06:44:43.511Z,15.00
2022-10-15T06:47:16.232Z,14.96
2022-10-15T06:49:48.107Z,14.96
2022-10-15T06:52:20.738Z,14.99
2022-10-15T06:54:53.160Z,14.98
2022-10-15T06:57:28.132Z,14.99
2022-10-15T07:00:00.084Z,15.01
2022-10-15T07:02:32.048Z,15.01
2022-10-15T07:05:04.036Z,15.03
2022-10-15T07:07:36.570Z,14.95
2022-10-15T07:10:10.111Z,15.05
2022-10-15T07:12:45.296Z,15.05
2022-10-15T07:15:17.546Z,15.02
2022-10-15T07:17:56.728Z,15.09
2022-10-15T07:20:29.323Z,15.10
2022-10-15T07:23:03.513Z,15.03
2022-10-15T07:25:35.944Z,15.01
2022-10-15T07:28:08.146Z,15.04
2022-10-15T07:30:40.069Z,14.97
2022-10-15T07:33:12.183Z,15.03
2022-10-15T07:35:49.863Z,15.10
2022-10-15T07:38:21.722Z,15.12
2022-10-15T07:40:54.017Z,15.18
2022-10-15T07:43:26.515Z,15.17
2022-10-15T07:45:58.867Z,15.19
2022-10-15T07:48:31.486Z,15.23
2022-10-15T07:51:06.140Z,15.26
2022-10-15T07:53:36.697Z,15.33
2022-10-15T07:56:12.129Z,15.37
2022-10-15T07:58:51.607Z,15.39
2022-10-15T08:01:24.007Z,15.38
2022-10-15T08:03:56.131Z,15.42
2022-10-15T08:06:29.891Z,15.46
2022-10-15T08:09:02.359Z,15.44
2022-10-15T08:11:34.576Z,15.43
2022-10-15T08:14:06.474Z,15.27
2022-10-15T08:16:38.484Z,15.46
2022-10-15T08:19:10.712Z,15.47
2022-10-15T08:21:45.236Z,15.50
2022-10-15T08:24:19.550Z,15.58
2022-10-15T08:26:51.539Z,15.59
2022-10-15T08:29:23.408Z,15.65
2022-10-15T08:31:55.355Z,15.68
2022-10-15T08:34:29.051Z,15.65
2022-10-15T08:37:01.199Z,15.72
2022-10-15T08:39:33.226Z,15.67
2022-10-15T08:42:13.219Z,15.78
2022-10-15T08:44:48.518Z,15.80
2022-10-15T08:47:30.179Z,15.82
2022-10-15T08:50:04.011Z,15.87
2022-10-15T08:52:46.186Z,15.91
2022-10-15T08:55:20.053Z,15.99
2022-10-15T08:57:58.096Z,16.02
2022-10-15T09:00:36.692Z,16.06
2022-10-15T09:03:18.955Z,16.11
2022-10-15T09:05:58.771Z,16.12
2022-10-15T09:08:38.440Z,16.14
2022-10-15T09:11:18.939Z,16.13
2022-10-15T09:13:52.147Z,16.20
2022-10-15T09:16:33.574Z,16.21
2022-10-15T09:19:16.313Z,16.27
2022-10-15T09:21:50.026Z,16.30
2022-10-15T09:24:25.545Z,16.36
2022-10-15T09:27:06.814Z,16.44
2022-10-15T09:29:45.611Z,16.42
2022-10-15T09:32:22.812Z,16.46
2022-10-15T09:35:02.020Z,16.50
2022-10-15T09:37:47.997Z,16.61
2022-10-15T09:40:45.982Z,16.68
2022-10-15T09:43:31.202Z,16.79
2022-10-15T09:46:03.801Z,16.85
2022-10-15T09:48:40.154Z,16.92
2022-10-15T09:51:19.498Z,16.93
2022-10-15T09:53:57.469Z,16.98
2022-10-15T09:56:36.692Z,16.86
2022-10-15T09:59:09.668Z,16.81
2022-10-15T10:01:41.727Z,16.74
2022-10-15T10:04:18.586Z,16.80
2022-10-15T10:06:53.928Z,16.75
2022-10-15T10:09:31.795Z,16.67
2022-10-15T10:12:07.558Z,16.76
2022-10-15T10:14:46.477Z,16.77
2022-10-15T10:17:22.455Z,16.73
2022-10-15T10:20:14.694Z,16.73
2022-10-15T10:22:51.484Z,16.71
2022-10-15T10:25:33.946Z,16.87
2022-10-15T10:28:20.788Z,16.80
2022-10-15T10:31:03.526Z,16.95
2022-10-15T10:33:43.630Z,16.93
2022-10-15T10:36:26.732Z,16.89
2022-10-15T10:39:02.602Z,16.89
2022-10-15T10:41:51.960Z,16.95
2022-10-15T10:44:29.412Z,17.09
2022-10-15T10:47:18.663Z,17.18
2022-10-15T10:49:53.624Z,17.16
2022-10-15T10:52:28.499Z,17.18
2022-10-15T10:55:02.898Z,17.23
2022-10-15T10:57:45.382Z,17.21
2022-10-15T11:00:21.529Z,17.26
2022-10-15T11:02:54.349Z,17.37
2022-10-15T11:05:29.888Z,17.46
2022-10-15T11:08:11.633Z,17.59
2022-10-15T11:10:54.772Z,17.70
2022-10-15T11:13:43.566Z,17.77
2022-10-15T11:16:26.472Z,17.85
2022-10-15T11:19:19.095Z,17.89
2022-10-15T11:22:27.300Z,18.26
2022-10-15T11:25:08.176Z,18.44
2022-10-15T11:27:54.459Z,18.60
2022-10-15T11:30:43.154Z,18.77
2022-10-15T11:33:31.606Z,18.73
2022-10-15T11:36:21.971Z,18.47
2022-10-15T11:39:01.342Z,18.39
2022-10-15T11:41:46.225Z,18.27
2022-10-15T11:44:32.875Z,18.31
2022-10-15T11:47:19.185Z,18.29
2022-10-15T11:49:56.791Z,18.11
2022-10-15T11:52:46.109Z,18.14
2022-10-15T11:55:22.727Z,18.18
2022-10-15T11:58:00.091Z,18.16
2022-10-15T12:00:37.030Z,18.17
2022-10-15T12:03:16.422Z,18.59
2022-10-15T12:05:54.997Z,18.87
2022-10-15T12:08:32.003Z,18.88
2022-10-15T12:11:16.037Z,18.86
2022-10-15T12:13:57.240Z,18.78
2022-10-15T12:16:38.416Z,18.71
2022-10-15T12:19:18.477Z,18.59
2022-10-15T12:22:11.343Z,18.56
2022-10-15T12:24:56.577Z,18.64
2022-10-15T12:27:34.611Z,18.73
2022-10-15T12:30:25.790Z,18.72
2022-10-15T12:32:59.100Z,18.83
2022-10-15T12:35:37.513Z,18.79
2022-10-15T12:38:26.393Z,18.85
2022-10-15T12:41:10.602Z,18.94
2022-10-15T12:43:45.811Z,19.05
2022-10-15T12:46:18.202Z,19.24
2022-10-15T12:48:54.084Z,19.37
2022-10-15T12:51:35.580Z,19.42
2022-10-15T12:54:39.507Z,19.44
2022-10-15T12:57:45.629Z,19.40
2022-10-15T13:00:41.666Z,19.31
2022-10-15T13:03:40.507Z,19.19
2022-10-15T13:06:28.052Z,19.00
2022-10-15T13:09:07.335Z,18.87
2022-10-15T13:11:42.951Z,18.82
2022-10-15T13:14:25.883Z,18.85
2022-10-15T13:17:02.506Z,18.70
2022-10-15T13:19:39.596Z,18.68
2022-10-15T13:22:24.817Z,18.62
2022-10-15T13:24:58.113Z,18.69
2022-10-15T13:27:36.911Z,18.68
2022-10-15T13:30:15.867Z,18.72
2022-10-15T13:32:49.972Z,18.68
2022-10-15T13:35:26.157Z,18.62
2022-10-15T13:37:59.145Z,18.61
2022-10-15T13:40:32.823Z,18.58
2022-10-15T13:43:06.294Z,18.55
2022-10-15T13:45:39.864Z,18.52
2022-10-15T13:48:22.055Z,18.51
2022-10-15T13:50:56.061Z,18.51
2022-10-15T13:53:31.396Z,18.40
2022-10-15T13:56:06.504Z,18.36
2022-10-15T13:58:39.860Z,18.32
2022-10-15T14:01:16.221Z,18.36
2022-10-15T14:03:51.600Z,18.32
2022-10-15T14:06:25.368Z,18.34
2022-10-15T14:08:59.370Z,18.18
2022-10-15T14:11:40.085Z,18.22
2022-10-15T14:14:33.133Z,18.29
2022-10-15T14:17:07.262Z,18.31
2022-10-15T14:19:40.564Z,18.29
2022-10-15T14:22:23.331Z,18.27
2022-10-15T14:24:56.756Z,18.24
2022-10-15T14:27:31.253Z,18.31
2022-10-15T14:30:03.506Z,18.27
2022-10-15T14:32:48.752Z,18.29
2022-10-15T14:35:34.278Z,18.27
2022-10-15T14:38:16.505Z,18.21
2022-10-15T14:41:06.357Z,18.09
2022-10-15T14:43:40.330Z,18.19
2022-10-15T14:46:20.444Z,18.15
2022-10-15T14:48:52.698Z,18.21
2022-10-15T14:51:26.985Z,18.20
2022-10-15T14:53:59.969Z,18.06
2022-10-15T14:56:35.409Z,18.18
2022-10-15T14:59:09.265Z,18.11
2022-10-15T15:01:42.420Z,18.16
2022-10-15T15:04:38.222Z,18.17
2022-10-15T15:07:18.659Z,18.17
2022-10-15T15:09:54.156Z,18.16
2022-10-15T15:12:29.155Z,18.09
2022-10-15T15:15:02.267Z,18.13
2022-10-15T15:17:34.394Z,18.12
2022-10-15T15:20:07.612Z,18.10
2022-10-15T15:22:41.861Z,18.03
2022-10-15T15:25:19.495Z,18.05
2022-10-15T15:27:51.305Z,17.97
2022-10-15T15:30:26.670Z,18.01
2022-10-15T15:33:00.678Z,18.00
2022-10-15T15:35:38.015Z,18.00
2022-10-15T15:38:10.924Z,17.93
2022-10-15T15:40:43.360Z,17.84
2022-10-15T15:43:17.525Z,17.83
2022-10-15T15:45:49.625Z,17.73
2022-10-15T15:48:21.556Z,17.77
2022-10-15T15:50:54.379Z,17.81
2022-10-15T15:53:26.362Z,17.83
2022-10-15T15:55:59.747Z,17.87
2022-10-15T15:58:31.699Z,17.85
2022-10-15T16:01:04.345Z,17.77
2022-10-15T16:03:36.498Z,17.68
2022-10-15T16:06:12.336Z,17.70
2022-10-15T16:08:44.219Z,17.54
2022-10-15T16:11:16.224Z,17.53
2022-10-15T16:13:48.552Z,17.55
2022-10-15T16:16:21.486Z,17.55
2022-10-15T16:18:54.742Z,17.54
2022-10-15T16:21:28.703Z,17.44
2022-10-15T16:26:39.888Z,17.32
2022-10-15T16:29:11.825Z,17.44
2022-10-15T16:31:44.417Z,17.47
2022-10-15T16:34:16.588Z,17.42
2022-10-15T16:36:48.600Z,17.46
2022-10-15T16:39:21.348Z,17.45
2022-10-15T16:41:53.376Z,17.51
2022-10-15T16:44:25.503Z,17.50
2022-10-15T16:46:57.882Z,17.48
2022-10-15T16:49:30.275Z,17.42
2022-10-15T16:52:02.543Z,17.39
2022-10-15T16:54:34.480Z,17.42
2022-10-15T16:57:06.973Z,17.45
2022-10-15T16:59:39.014Z,17.38
2022-10-15T17:02:11.804Z,17.46
2022-10-15T17:04:44.340Z,17.48
2022-10-15T17:07:16.727Z,17.45
2022-10-15T17:12:27.182Z,17.45
2022-10-15T17:14:59.385Z,17.43
2022-10-15T17:17:31.417Z,17.40
2022-10-15T17:20:03.535Z,17.43
2022-10-15T17:22:35.979Z,17.42
2022-10-15T17:25:09.330Z,17.40
2022-10-15T17:27:41.502Z,17.39
2022-10-15T17:30:14.193Z,17.41
2022-10-15T17:32:49.779Z,17.40
2022-10-15T17:35:23.340Z,17.41
2022-10-15T17:37:56.015Z,17.40
2022-10-15T17:40:28.224Z,17.41
2022-10-15T17:43:00.334Z,17.41
2022-10-15T17:45:32.462Z,17.38
2022-10-15T17:48:04.747Z,17.36
2022-10-15T17:51:02.240Z,17.32
2022-10-15T17:53:37.148Z,17.30
2022-10-15T17:56:15.105Z,17.26
2022-10-15T17:58:47.775Z,17.22
2022-10-15T18:01:33.701Z,17.10
2022-10-15T18:04:17.616Z,17.10
2022-10-15T18:06:50.068Z,17.05
2022-10-15T18:09:29.498Z,17.11
2022-10-15T18:12:03.782Z,17.15
2022-10-15T18:14:38.454Z,17.20
2022-10-15T18:17:11.014Z,17.21
2022-10-15T18:19:43.009Z,17.17
2022-10-15T18:22:15.202Z,17.17
2022-10-15T18:24:47.133Z,17.10
2022-10-15T18:27:19.374Z,17.10
2022-10-15T18:29:51.436Z,17.17
2022-10-15T18:32:23.538Z,17.19
2022-10-15T18:34:55.846Z,17.13
2022-10-15T18:37:30.347Z,17.11
2022-10-15T18:40:02.425Z,17.14
2022-10-15T18:42:34.400Z,17.13
2022-10-15T18:45:09.308Z,17.16
2022-10-15T18:47:41.181Z,17.18
2022-10-15T18:50:13.442Z,17.22
2022-10-15T18:52:46.406Z,17.08
2022-10-15T18:55:18.948Z,17.06
2022-10-15T18:57:51.065Z,17.10
2022-10-15T19:00:23.392Z,17.18
2022-10-15T19:02:56.623Z,17.13
2022-10-15T19:05:29.023Z,17.08
2022-10-15T19:08:03.986Z,17.00
2022-10-15T19:10:36.351Z,17.13
2022-10-15T19:13:08.368Z,16.98
2022-10-15T19:15:40.350Z,16.99
2022-10-15T19:18:12.757Z,17.05
2022-10-15T19:20:47.471Z,17.12
2022-10-15T19:23:21.870Z,17.04
2022-10-15T19:25:54.272Z,17.08
2022-10-15T19:28:26.456Z,17.15
2022-10-15T19:31:00.532Z,17.15
2022-10-15T19:33:33.707Z,17.13
2022-10-15T19:36:06.777Z,17.08
2022-10-15T19:38:38.951Z,17.09
2022-10-15T19:41:11.034Z,17.08
2022-10-15T19:43:43.044Z,17.13
2022-10-15T19:46:15.580Z,17.09
2022-10-15T19:48:49.529Z,17.04
2022-10-15T19:51:25.016Z,17.04
2022-10-15T19:53:59.969Z,17.07
2022-10-15T19:56:35.115Z,17.08
2022-10-15T19:59:08.498Z,17.10
2022-10-15T20:01:40.469Z,17.10
2022-10-15T20:04:12.665Z,17.06
2022-10-15T20:06:45.358Z,17.06
2022-10-15T20:09:17.710Z,17.00
2022-10-15T20:11:49.683Z,16.93
2022-10-15T20:14:21.894Z,16.92
2022-10-15T20:16:53.885Z,16.90
2022-10-15T20:19:25.804Z,16.87
2022-10-15T20:21:58.321Z,16.83
2022-10-15T20:24:30.379Z,16.81
2022-10-15T20:27:03.016Z,16.65
2022-10-15T20:29:35.383Z,16.65
2022-10-15T20:32:17.008Z,16.63
2022-10-15T20:35:01.124Z,16.59
2022-10-15T20:37:33.549Z,16.51
2022-10-15T20:40:06.639Z,16.45
2022-10-15T20:42:38.774Z,16.41
2022-10-15T20:45:14.571Z,16.44
2022-10-15T20:47:49.887Z,16.43
2022-10-15T20:50:26.252Z,16.45
2022-10-15T20:52:59.632Z,16.46
2022-10-15T20:55:31.632Z,16.43
2022-10-15T20:58:03.838Z,16.44
2022-10-15T21:00:35.758Z,16.42
2022-10-15T21:03:07.662Z,16.40
2022-10-15T21:05:39.555Z,16.42
2022-10-15T21:08:11.892Z,16.47
2022-10-15T21:10:43.943Z,16.46
2022-10-15T21:13:16.030Z,16.45
2022-10-15T21:15:47.851Z,16.43
2022-10-15T21:18:19.779Z,16.39
2022-10-15T21:20:51.770Z,16.43
2022-10-15T21:23:24.093Z,16.42
2022-10-15T21:25:56.920Z,16.39
2022-10-15T21:28:30.889Z,16.34
2022-10-15T21:31:06.688Z,16.33
2022-10-15T21:33:39.048Z,16.33
2022-10-15T21:36:16.283Z,16.38
2022-10-15T21:38:48.582Z,16.34
2022-10-15T21:41:20.612Z,16.24
2022-10-15T21:43:52.792Z,16.23
2022-10-15T21:46:24.833Z,16.21
2022-10-15T21:48:57.186Z,16.18
2022-10-15T21:51:30.392Z,16.17
2022-10-15T21:54:06.348Z,16.27
2022-10-15T21:56:38.650Z,16.14
2022-10-15T21:59:10.630Z,16.16
2022-10-15T22:01:45.288Z,16.15
2022-10-15T22:04:17.312Z,16.20
2022-10-15T22:06:49.149Z,16.14
2022-10-15T22:09:21.347Z,16.31
2022-10-15T22:11:54.355Z,16.27
2022-10-15T22:14:26.386Z,16.20
2022-10-15T22:16:58.557Z,16.24
2022-10-15T22:19:31.058Z,16.14
2022-10-15T22:22:06.464Z,16.14
2022-10-15T22:24:38.450Z,16.18
2022-10-15T22:27:11.096Z,16.10
2022-10-15T22:29:44.273Z,16.05
2022-10-15T22:32:16.220Z,16.11
2022-10-15T22:34:48.713Z,16.09
2022-10-15T22:37:20.725Z,16.04
2022-10-15T22:39:53.052Z,16.16
2022-10-15T22:42:25.516Z,16.15
2022-10-15T22:44:57.726Z,16.10
2022-10-15T22:47:29.763Z,16.19
2022-10-15T22:52:39.123Z,16.23
2022-10-15T22:55:15.223Z,16.15
2022-10-15T22:57:47.098Z,16.16
2022-10-15T23:00:19.646Z,16.15
2022-10-15T23:02:54.372Z,16.16
2022-10-15T23:05:25.084Z,16.14
2022-10-15T23:07:59.168Z,16.20
2022-10-15T23:10:33.098Z,16.20
2022-10-15T23:13:05.182Z,16.23
2022-10-15T23:15:37.134Z,16.17
2022-10-15T23:18:09.369Z,16.20
2022-10-15T23:20:41.869Z,16.20
2022-10-15T23:23:14.627Z,16.22
2022-10-15T23:25:48.957Z,16.13
2022-10-15T23:28:21.245Z,16.15
2022-10-15T23:30:53.463Z,16.11
2022-10-15T23:33:25.850Z,16.09
2022-10-15T23:36:03.524Z,16.10
2022-10-15T23:38:35.676Z,16.10
2022-10-15T23:41:10.682Z,16.02
2022-10-15T23:43:43.695Z,16.03
2022-10-15T23:46:16.582Z,15.90
2022-10-15T23:48:49.122Z,15.82
2022-10-15T23:51:23.752Z,15.83
2022-10-15T23:53:58.195Z,15.77
2022-10-15T23:56:31.611Z,15.74
2022-10-15T23:59:03.507Z,15.74
